createdAt,value
2023-01-29T00:01:59.783Z,5.40
2023-01-29T00:06:07.154Z,6.00
2023-01-29T00:10:11.769Z,7.43
2023-01-29T00:14:14.899Z,5.23
2023-01-29T00:18:19.312Z,7.30
2023-01-29T00:22:22.376Z,5.33
2023-01-29T00:26:25.477Z,5.77
2023-01-29T00:30:28.552Z,7.77
2023-01-29T00:34:32.932Z,7.57
2023-01-29T00:38:36.899Z,6.43
2023-01-29T00:42:57.186Z,7.03
2023-01-29T00:47:00.427Z,7.37
2023-01-29T00:51:05.162Z,7.00
2023-01-29T00:55:10.189Z,5.80
2023-01-29T00:59:13.975Z,6.13
2023-01-29T01:03:17.500Z,9.23
2023-01-29T01:07:22.494Z,6.00
2023-01-29T01:11:26.737Z,6.70
2023-01-29T01:15:31.922Z,5.83
2023-01-29T01:19:35.155Z,7.20
2023-01-29T01:23:39.561Z,6.70
2023-01-29T01:27:42.825Z,6.77
2023-01-29T01:31:45.934Z,7.77
2023-01-29T01:35:49.040Z,6.40
2023-01-29T01:39:58.524Z,5.67
2023-01-29T01:44:03.868Z,6.90
2023-01-29T01:48:13.010Z,5.57
2023-01-29T01:52:17.532Z,7.47
2023-01-29T01:56:28.665Z,7.77
2023-01-29T02:00:31.850Z,5.20
2023-01-29T02:04:52.504Z,5.63
2023-01-29T02:09:17.347Z,7.97
2023-01-29T02:13:22.381Z,7.23
2023-01-29T02:17:25.517Z,5.17
2023-01-29T02:21:48.514Z,6.03
2023-01-29T02:26:11.473Z,5.97
2023-01-29T02:30:22.147Z,6.57
2023-01-29T02:34:55.136Z,7.27
2023-01-29T02:39:08.831Z,6.27
2023-01-29T02:43:25.098Z,5.53
2023-01-29T02:47:36.356Z,5.13
2023-01-29T02:51:45.265Z,5.70
2023-01-29T02:55:52.814Z,5.43
2023-01-29T03:00:00.725Z,5.80
2023-01-29T03:04:10.553Z,5.67
2023-01-29T03:08:22.571Z,6.40
2023-01-29T03:12:34.044Z,5.87
2023-01-29T03:16:44.940Z,7.80
2023-01-29T03:20:53.988Z,6.83
2023-01-29T03:25:19.106Z,7.07
2023-01-29T03:29:41.786Z,7.80
2023-01-29T03:33:49.875Z,7.60
2023-01-29T03:37:56.935Z,5.67
2023-01-29T03:42:06.115Z,6.67
2023-01-29T03:46:19.068Z,5.57
2023-01-29T03:50:37.014Z,6.53
2023-01-29T03:55:01.602Z,4.90
2023-01-29T03:59:18.310Z,5.73
2023-01-29T04:03:44.686Z,6.30
2023-01-29T04:07:53.530Z,5.53
2023-01-29T04:12:06.547Z,6.30
2023-01-29T04:16:15.641Z,5.50
2023-01-29T04:20:54.224Z,5.97
2023-01-29T04:25:02.463Z,4.47
2023-01-29T04:29:21.669Z,5.97
2023-01-29T04:33:38.260Z,5.57
2023-01-29T04:37:46.212Z,7.53
2023-01-29T04:41:55.049Z,4.93
2023-01-29T04:46:14.290Z,4.60
2023-01-29T04:50:22.216Z,6.20
2023-01-29T04:54:34.857Z,5.63
2023-01-29T04:58:42.671Z,5.50
2023-01-29T05:02:48.244Z,5.90
2023-01-29T05:06:52.324Z,5.13
2023-01-29T05:10:58.403Z,5.23
2023-01-29T05:15:05.274Z,4.90
2023-01-29T05:19:10.564Z,5.73
2023-01-29T05:23:18.152Z,6.57
2023-01-29T05:27:46.728Z,5.37
2023-01-29T05:31:49.835Z,4.43
2023-01-29T05:35:55.374Z,4.93
2023-01-29T05:39:58.450Z,6.60
2023-01-29T05:44:01.467Z,4.70
2023-01-29T05:48:04.714Z,6.87
2023-01-29T05:52:09.077Z,6.13
2023-01-29T05:56:12.203Z,9.23
2023-01-29T06:00:16.668Z,6.73
2023-01-29T06:04:19.850Z,5.57
2023-01-29T06:08:24.285Z,5.23
2023-01-29T06:12:28.451Z,5.77
2023-01-29T06:16:31.493Z,6.27
2023-01-29T06:20:34.565Z,6.30
2023-01-29T06:24:39.084Z,3.67
2023-01-29T06:28:42.623Z,5.67
2023-01-29T06:32:45.608Z,6.07
2023-01-29T06:36:48.802Z,6.17
2023-01-29T06:40:53.832Z,5.90
2023-01-29T06:44:56.864Z,6.10
2023-01-29T06:49:01.282Z,5.47
2023-01-29T06:53:04.342Z,6.00
2023-01-29T06:57:08.724Z,6.90
2023-01-29T07:01:25.530Z,6.07
2023-01-29T07:05:36.444Z,6.30
2023-01-29T07:09:39.799Z,6.53
2023-01-29T07:13:44.391Z,6.87
2023-01-29T07:17:57.359Z,6.77
2023-01-29T07:22:02.424Z,7.23
2023-01-29T07:26:06.953Z,6.53
2023-01-29T07:30:12.862Z,7.27
2023-01-29T07:34:15.904Z,6.70
2023-01-29T07:38:19.094Z,6.00
2023-01-29T07:42:22.198Z,8.20
2023-01-29T07:46:26.578Z,8.27
2023-01-29T07:50:29.602Z,7.07
2023-01-29T07:54:32.752Z,7.57
2023-01-29T07:58:36.815Z,7.13
2023-01-29T08:02:41.441Z,6.43
2023-01-29T08:06:44.490Z,7.90
2023-01-29T08:10:47.517Z,8.77
2023-01-29T08:14:51.315Z,6.80
2023-01-29T08:18:55.679Z,7.60
2023-01-29T08:23:02.535Z,6.50
2023-01-29T08:27:05.535Z,7.70
2023-01-29T08:31:14.941Z,8.40
2023-01-29T08:35:19.677Z,7.33
2023-01-29T08:39:23.151Z,5.50
2023-01-29T08:43:26.163Z,6.47
2023-01-29T08:47:29.711Z,6.27
2023-01-29T08:51:34.107Z,5.83
2023-01-29T08:55:38.324Z,6.40
2023-01-29T08:59:41.337Z,6.50
2023-01-29T09:03:44.804Z,6.97
2023-01-29T09:07:49.189Z,7.37
2023-01-29T09:11:52.247Z,6.93
2023-01-29T09:15:56.110Z,6.13
2023-01-29T09:19:59.935Z,6.13
2023-01-29T09:24:04.508Z,8.73
2023-01-29T09:28:07.515Z,6.23
2023-01-29T09:32:10.498Z,7.20
2023-01-29T09:36:14.591Z,6.43
2023-01-29T09:40:27.014Z,8.10
2023-01-29T09:44:50.770Z,5.80
2023-01-29T09:49:02.568Z,5.97
2023-01-29T09:53:16.297Z,6.00
2023-01-29T09:57:26.276Z,7.30
2023-01-29T10:01:36.181Z,6.83
2023-01-29T10:05:55.902Z,6.00
2023-01-29T10:10:11.557Z,7.80
2023-01-29T10:14:25.164Z,6.47
2023-01-29T10:18:43.203Z,4.60
2023-01-29T10:22:59.550Z,6.50
2023-01-29T10:27:04.359Z,7.43
2023-01-29T10:31:13.755Z,8.80
2023-01-29T10:35:23.935Z,6.20
2023-01-29T10:39:28.154Z,11.07
2023-01-29T10:43:40.275Z,7.60
2023-01-29T10:48:33.940Z,7.63
2023-01-29T10:52:51.020Z,8.33
2023-01-29T10:57:06.620Z,8.33
2023-01-29T11:01:10.486Z,9.13
2023-01-29T11:05:24.353Z,7.20
2023-01-29T11:09:33.218Z,7.50
2023-01-29T11:13:41.756Z,7.97
2023-01-29T11:18:03.669Z,9.00
2023-01-29T11:22:15.819Z,6.80
2023-01-29T11:26:22.361Z,8.30
2023-01-29T11:30:28.314Z,8.60
2023-01-29T11:34:32.260Z,7.37
2023-01-29T11:38:36.645Z,8.20
2023-01-29T11:42:39.659Z,7.37
2023-01-29T11:46:42.965Z,7.10
2023-01-29T11:50:53.018Z,6.77
2023-01-29T11:55:02.276Z,9.93
2023-01-29T11:59:05.912Z,7.93
2023-01-29T12:03:16.698Z,7.50
2023-01-29T12:07:20.720Z,7.37
2023-01-29T12:11:30.725Z,7.20
2023-01-29T12:15:35.319Z,8.30
2023-01-29T12:19:45.564Z,7.53
2023-01-29T12:23:56.197Z,8.43
2023-01-29T12:28:05.633Z,8.20
2023-01-29T12:32:21.114Z,6.40
2023-01-29T12:36:30.052Z,6.97
2023-01-29T12:40:43.627Z,7.10
2023-01-29T12:44:51.816Z,7.20
2023-01-29T12:48:57.847Z,7.83
2023-01-29T12:53:06.083Z,9.67
2023-01-29T12:57:19.247Z,7.40
2023-01-29T13:01:31.262Z,7.37
2023-01-29T13:05:39.855Z,6.90
2023-01-29T13:09:47.495Z,7.70
2023-01-29T13:13:55.170Z,6.73
2023-01-29T13:18:03.916Z,8.30
2023-01-29T13:22:18.524Z,7.93
2023-01-29T13:26:23.305Z,8.03
2023-01-29T13:30:31.302Z,7.03
2023-01-29T13:34:38.825Z,8.33
2023-01-29T13:38:46.996Z,7.17
2023-01-29T13:42:53.203Z,8.90
2023-01-29T13:46:59.460Z,6.90
2023-01-29T13:51:05.852Z,6.90
2023-01-29T13:55:22.284Z,7.80
2023-01-29T13:59:46.220Z,8.50
2023-01-29T14:04:04.768Z,10.03
2023-01-29T14:08:38.941Z,8.00
2023-01-29T14:12:43.897Z,8.30
2023-01-29T14:16:47.421Z,7.73
2023-01-29T14:20:59.637Z,6.10
2023-01-29T14:25:06.370Z,9.37
2023-01-29T14:29:29.059Z,8.63
2023-01-29T14:33:41.163Z,7.80
2023-01-29T14:37:50.790Z,8.13
2023-01-29T14:41:54.136Z,8.00
2023-01-29T14:46:35.750Z,8.20
2023-01-29T14:50:55.191Z,7.93
2023-01-29T14:55:04.063Z,11.93
2023-01-29T14:59:17.782Z,9.17
2023-01-29T15:03:27.936Z,11.23
2023-01-29T15:07:35.977Z,12.17
2023-01-29T15:11:49.858Z,9.53
2023-01-29T15:15:56.227Z,8.10
2023-01-29T15:19:59.309Z,9.43
2023-01-29T15:24:06.667Z,9.73
2023-01-29T15:28:12.633Z,8.87
2023-01-29T15:32:28.459Z,12.23
2023-01-29T15:36:33.190Z,10.70
2023-01-29T15:40:36.205Z,8.90
2023-01-29T15:44:46.499Z,7.47
2023-01-29T15:48:50.969Z,8.63
2023-01-29T15:52:56.131Z,8.50
2023-01-29T15:57:00.319Z,10.27
2023-01-29T16:01:05.260Z,8.07
2023-01-29T16:05:14.281Z,8.47
2023-01-29T16:09:23.609Z,8.30
2023-01-29T16:13:30.036Z,10.17
2023-01-29T16:17:37.698Z,7.90
2023-01-29T16:21:45.984Z,10.70
2023-01-29T16:25:50.738Z,7.17
2023-01-29T16:29:54.248Z,8.90
2023-01-29T16:34:00.215Z,9.10
2023-01-29T16:38:09.135Z,9.97
2023-01-29T16:42:29.966Z,9.77
2023-01-29T16:46:35.377Z,7.30
2023-01-29T16:50:53.921Z,9.00
2023-01-29T16:55:20.620Z,8.80
2023-01-29T16:59:33.686Z,8.60
2023-01-29T17:03:38.361Z,8.50
2023-01-29T17:07:46.986Z,8.87
2023-01-29T17:11:56.776Z,8.27
2023-01-29T17:16:02.801Z,7.37
2023-01-29T17:20:14.825Z,9.13
2023-01-29T17:24:19.475Z,8.77
2023-01-29T17:28:22.521Z,10.33
2023-01-29T17:32:45.243Z,7.50
2023-01-29T17:36:50.416Z,8.80
2023-01-29T17:40:57.445Z,9.73
2023-01-29T17:45:00.488Z,8.13
2023-01-29T17:49:04.507Z,9.87
2023-01-29T17:53:07.639Z,10.30
2023-01-29T17:57:15.525Z,8.43
2023-01-29T18:01:18.687Z,10.53
2023-01-29T18:05:21.739Z,8.20
2023-01-29T18:09:24.987Z,8.83
2023-01-29T18:13:29.757Z,8.77
2023-01-29T18:17:32.783Z,10.40
2023-01-29T18:21:35.822Z,10.33
2023-01-29T18:25:39.840Z,8.10
2023-01-29T18:29:44.207Z,7.83
2023-01-29T18:33:47.450Z,11.03
2023-01-29T18:37:51.443Z,10.07
2023-01-29T18:41:54.439Z,9.60
2023-01-29T18:46:00.310Z,10.57
2023-01-29T18:50:03.375Z,10.23
2023-01-29T18:54:06.499Z,10.27
2023-01-29T18:58:26.655Z,10.47
2023-01-29T19:02:34.398Z,10.63
2023-01-29T19:06:38.041Z,10.60
2023-01-29T19:10:41.587Z,12.80
2023-01-29T19:14:44.686Z,11.67
2023-01-29T19:18:49.111Z,13.23
2023-01-29T19:22:52.243Z,11.63
2023-01-29T19:26:55.791Z,13.07
2023-01-29T19:30:59.099Z,13.77
2023-01-29T19:35:03.662Z,13.03
2023-01-29T19:39:06.880Z,13.67
2023-01-29T19:43:09.929Z,15.10
2023-01-29T19:47:13.069Z,14.37
2023-01-29T19:51:17.502Z,14.53
2023-01-29T19:55:21.664Z,13.70
2023-01-29T19:59:24.763Z,14.97
2023-01-29T20:03:29.308Z,15.03
2023-01-29T20:07:33.712Z,18.50
2023-01-29T20:11:36.753Z,14.87
2023-01-29T20:15:39.822Z,14.50
2023-01-29T20:19:42.837Z,14.27
2023-01-29T20:23:47.339Z,13.47
2023-01-29T20:27:50.560Z,11.90
2023-01-29T20:31:53.628Z,12.17
2023-01-29T20:35:57.391Z,12.27
2023-01-29T20:40:01.787Z,14.03
2023-01-29T20:44:04.864Z,11.67
2023-01-29T20:48:08.851Z,13.83
2023-01-29T20:52:12.512Z,13.23
2023-01-29T20:56:18.299Z,13.73
2023-01-29T21:00:27.584Z,14.90
2023-01-29T21:04:31.378Z,13.43
2023-01-29T21:08:35.358Z,14.83
2023-01-29T21:12:39.753Z,14.73
2023-01-29T21:16:42.797Z,14.53
2023-01-29T21:20:46.007Z,12.30
2023-01-29T21:24:49.037Z,13.63
2023-01-29T21:28:53.977Z,14.17
2023-01-29T21:32:57.097Z,18.23
2023-01-29T21:37:00.160Z,13.23
2023-01-29T21:41:05.293Z,14.57
2023-01-29T21:45:11.096Z,14.67
2023-01-29T21:49:14.093Z,14.20
2023-01-29T21:53:17.227Z,15.10
2023-01-29T21:57:20.296Z,19.17
2023-01-29T22:01:37.423Z,17.63
2023-01-29T22:05:41.653Z,21.50
2023-01-29T22:09:44.687Z,16.60
2023-01-29T22:13:48.062Z,16.17
2023-01-29T22:17:52.739Z,16.83
2023-01-29T22:21:56.258Z,18.30
2023-01-29T22:26:03.563Z,20.17
2023-01-29T22:30:08.103Z,17.87
2023-01-29T22:34:13.419Z,21.53
2023-01-29T22:38:16.476Z,20.23
2023-01-29T22:42:20.255Z,19.20
2023-01-29T22:46:23.296Z,15.73
2023-01-29T22:50:27.860Z,17.87
2023-01-29T22:54:30.914Z,18.23
2023-01-29T22:58:34.153Z,20.03
2023-01-29T23:02:37.403Z,18.87
2023-01-29T23:06:41.970Z,15.33
2023-01-29T23:10:45.149Z,14.80
2023-01-29T23:14:48.192Z,14.77
2023-01-29T23:18:53.402Z,14.13
2023-01-29T23:22:57.882Z,15.93
2023-01-29T23:27:15.827Z,15.70
2023-01-29T23:31:19.282Z,13.77
2023-01-29T23:35:22.368Z,16.07
2023-01-29T23:39:26.793Z,11.33
2023-01-29T23:43:30.603Z,16.97
2023-01-29T23:47:33.655Z,18.13
2023-01-29T23:51:36.731Z,15.70
2023-01-29T23:55:41.457Z,13.80
2023-01-29T23:59:44.541Z,15.70
